Time;durP1;ratioP1;P1;durP2;ratioP2;P2;SDS_P1;SDS_P2;PMS_P1;PMS_P2;Temp;Humidity;BMP_temperature;BMP_pressure;BME280_temperature;BME280_humidity;BME280_pressure;Samples;Min_cycle;Max_cycle;Signal;HPM_P1;HPM_P2
2021/12/30 00:01:38;;;;;;;0.60;0.55;;;13.90;99.90;;;;;;5079123;28;20044;-56
2021/12/30 00:04:08;;;;;;;1.10;0.80;;;13.90;99.90;;;;;;5079356;28;20040;-56
2021/12/30 00:06:41;;;;;;;0.75;0.70;;;13.90;99.90;;;;;;5075771;28;20165;-56
2021/12/30 00:09:10;;;;;;;0.70;0.70;;;13.90;99.90;;;;;;5079437;28;20097;-55
2021/12/30 00:11:37;;;;;;;1.17;0.85;;;13.90;99.90;;;;;;5078804;28;20100;-57
2021/12/30 00:14:06;;;;;;;1.10;0.70;;;13.90;99.90;;;;;;5077888;28;20040;-57
2021/12/30 00:16:32;;;;;;;1.60;0.90;;;13.90;99.90;;;;;;5079204;28;20132;-57
2021/12/30 00:18:59;;;;;;;1.75;0.95;;;13.90;99.90;;;;;;5079118;28;20072;-57
2021/12/30 00:21:26;;;;;;;1.27;0.68;;;14.00;99.90;;;;;;5079965;28;20404;-57
2021/12/30 00:23:53;;;;;;;0.63;0.63;;;14.00;99.90;;;;;;5074362;28;20630;-56
2021/12/30 00:26:20;;;;;;;0.80;0.68;;;14.10;99.90;;;;;;5079217;28;20072;-57
2021/12/30 00:28:46;;;;;;;1.02;0.88;;;14.10;99.90;;;;;;5073459;28;20068;-57
2021/12/30 00:31:13;;;;;;;0.57;0.50;;;14.10;99.90;;;;;;5078722;28;20348;-57
2021/12/30 00:33:40;;;;;;;1.35;0.75;;;14.10;99.90;;;;;;5078872;28;20047;-57
2021/12/30 00:36:08;;;;;;;1.10;0.80;;;14.10;99.90;;;;;;5079450;28;20048;-57
2021/12/30 00:38:35;;;;;;;0.98;0.88;;;14.10;99.90;;;;;;5073307;28;20052;-55
2021/12/30 00:41:03;;;;;;;1.20;0.85;;;14.10;99.90;;;;;;5075172;28;20082;-57
2021/12/30 00:43:29;;;;;;;0.77;0.70;;;14.10;99.90;;;;;;5076625;28;20517;-56
2021/12/30 00:45:57;;;;;;;0.90;0.60;;;14.10;99.90;;;;;;5079725;28;20465;-57
2021/12/30 00:48:25;;;;;;;0.90;0.80;;;14.10;99.90;;;;;;5080131;28;20623;-57
2021/12/30 00:50:52;;;;;;;2.20;1.00;;;14.20;99.90;;;;;;5079813;28;20109;-56
2021/12/30 00:53:18;;;;;;;2.28;0.90;;;14.20;99.90;;;;;;5079919;28;20579;-56
2021/12/30 00:55:45;;;;;;;1.13;0.90;;;14.20;99.90;;;;;;5078302;28;20056;-57
2021/12/30 00:58:12;;;;;;;0.95;0.80;;;14.20;99.90;;;;;;5079536;28;20083;-55
2021/12/30 01:00:40;;;;;;;1.90;0.77;;;14.20;99.90;;;;;;5078052;28;20146;-56
2021/12/30 01:03:07;;;;;;;1.25;0.80;;;14.20;99.90;;;;;;5079770;28;20048;-56
2021/12/30 01:05:35;;;;;;;1.30;0.80;;;14.20;99.90;;;;;;5079337;28;20121;-58
2021/12/30 01:08:03;;;;;;;1.15;1.05;;;14.20;99.90;;;;;;5077989;28;20072;-57
2021/12/30 01:10:30;;;;;;;1.88;1.17;;;14.20;99.90;;;;;;5079411;28;20063;-55
2021/12/30 01:13:04;;;;;;;0.88;0.80;;;14.20;99.90;;;;;;5079358;28;20052;-55
2021/12/30 01:15:45;;;;;;;1.75;1.10;;;14.20;99.90;;;;;;5078667;28;20553;-58
2021/12/30 01:18:28;;;;;;;1.50;0.95;;;14.30;99.90;;;;;;5079553;28;20048;-56
2021/12/30 01:20:55;;;;;;;1.63;1.00;;;14.30;99.90;;;;;;5078961;28;20135;-58
2021/12/30 01:23:22;;;;;;;1.75;1.23;;;14.30;99.90;;;;;;5079013;28;20136;-56
2021/12/30 01:25:49;;;;;;;1.42;1.10;;;14.30;99.90;;;;;;5079571;28;20105;-58
2021/12/30 01:28:16;;;;;;;1.67;1.23;;;14.30;99.90;;;;;;5079180;28;20043;-57
2021/12/30 01:30:43;;;;;;;1.60;1.33;;;14.30;99.90;;;;;;5077953;28;20134;-57
2021/12/30 01:33:10;;;;;;;2.83;1.40;;;14.30;99.90;;;;;;5075682;28;20059;-58
2021/12/30 01:35:36;;;;;;;2.00;1.52;;;14.30;99.90;;;;;;5078730;28;20083;-57
2021/12/30 01:38:05;;;;;;;2.50;1.70;;;14.30;99.90;;;;;;5079724;28;20052;-57
2021/12/30 01:40:33;;;;;;;1.95;1.40;;;14.30;99.90;;;;;;5079710;28;20080;-58
2021/12/30 01:43:01;;;;;;;2.13;1.55;;;14.40;99.90;;;;;;5079189;28;20047;-57
2021/12/30 01:45:27;;;;;;;2.30;1.38;;;14.30;99.90;;;;;;5082244;28;20163;-57
2021/12/30 01:47:55;;;;;;;2.05;1.55;;;14.40;99.90;;;;;;5082884;28;20042;-58
2021/12/30 01:50:23;;;;;;;1.95;1.52;;;14.40;99.90;;;;;;5079271;28;20047;-57
2021/12/30 01:52:50;;;;;;;2.63;1.40;;;14.40;99.90;;;;;;5079758;28;20087;-58
2021/12/30 01:55:17;;;;;;;1.23;1.13;;;14.40;99.90;;;;;;5082268;28;20132;-58
2021/12/30 01:57:43;;;;;;;1.65;1.35;;;14.30;99.90;;;;;;5082335;28;20075;-58
2021/12/30 02:00:12;;;;;;;3.15;1.70;;;14.30;99.90;;;;;;5080660;28;20123;-56
2021/12/30 02:02:39;;;;;;;1.80;1.40;;;14.30;99.90;;;;;;5082382;28;20555;-57
2021/12/30 02:05:07;;;;;;;4.18;1.80;;;14.30;99.90;;;;;;5082059;28;20036;-58
2021/12/30 02:07:33;;;;;;;4.25;2.28;;;14.30;99.90;;;;;;5081991;28;20091;-58
2021/12/30 02:10:02;;;;;;;1.75;1.50;;;14.30;99.90;;;;;;5081803;28;20048;-59
2021/12/30 02:12:35;;;;;;;2.25;1.77;;;14.40;99.90;;;;;;5081181;28;20097;-57
2021/12/30 02:15:04;;;;;;;3.20;1.88;;;14.40;99.90;;;;;;5078035;28;20048;-58
2021/12/30 02:17:31;;;;;;;3.00;1.80;;;14.40;99.90;;;;;;5082223;28;20052;-56
2021/12/30 02:19:59;;;;;;;2.47;1.63;;;14.40;99.90;;;;;;5084755;28;20135;-61
2021/12/30 02:22:26;;;;;;;2.15;1.60;;;14.40;99.90;;;;;;5085646;28;21010;-56
2021/12/30 02:24:53;;;;;;;2.60;1.65;;;14.40;99.90;;;;;;5082202;28;20372;-56
2021/12/30 02:27:21;;;;;;;3.50;1.67;;;14.40;99.90;;;;;;5082898;28;20142;-57
2021/12/30 02:29:47;;;;;;;2.75;2.05;;;14.40;99.90;;;;;;5081771;28;20075;-58
2021/12/30 02:32:14;;;;;;;3.15;2.10;;;14.40;99.90;;;;;;5083146;28;20147;-58
2021/12/30 02:34:41;;;;;;;3.28;1.98;;;14.40;99.90;;;;;;5084306;28;20456;-54
2021/12/30 02:37:09;;;;;;;4.05;2.17;;;14.40;99.90;;;;;;5086001;28;20083;-57
2021/12/30 02:39:36;;;;;;;2.55;1.67;;;14.40;99.90;;;;;;5085631;28;20079;-54
2021/12/30 02:42:03;;;;;;;3.85;1.70;;;14.40;99.90;;;;;;5085746;28;20218;-56
2021/12/30 02:44:30;;;;;;;2.35;1.70;;;14.40;99.90;;;;;;5081543;28;20131;-57
2021/12/30 02:46:56;;;;;;;3.38;2.08;;;14.30;99.90;;;;;;5086163;28;20147;-55
2021/12/30 02:49:23;;;;;;;4.32;2.38;;;14.30;99.90;;;;;;5085667;28;20044;-57
2021/12/30 02:51:51;;;;;;;3.33;1.90;;;14.30;99.90;;;;;;5085561;28;20048;-54
2021/12/30 02:54:18;;;;;;;2.90;2.05;;;14.30;99.90;;;;;;5084808;28;20488;-57
2021/12/30 02:56:47;;;;;;;2.95;2.00;;;14.30;99.90;;;;;;5085909;28;20139;-55
2021/12/30 02:59:14;;;;;;;4.30;1.90;;;14.20;99.90;;;;;;5084554;28;20079;-57
2021/12/30 03:01:41;;;;;;;2.25;1.77;;;14.20;99.90;;;;;;5084601;28;20136;-56
2021/12/30 03:04:10;;;;;;;3.30;1.80;;;14.20;99.90;;;;;;5085670;28;20044;-53
2021/12/30 03:06:37;;;;;;;3.08;1.63;;;14.20;99.90;;;;;;5085543;28;20139;-55
2021/12/30 03:09:04;;;;;;;2.42;1.42;;;14.20;99.90;;;;;;5085168;28;20075;-52
2021/12/30 03:11:31;;;;;;;1.88;1.33;;;14.20;99.90;;;;;;5082879;28;20052;-57
2021/12/30 03:13:59;;;;;;;2.53;1.38;;;14.20;99.90;;;;;;5084075;28;20079;-54
2021/12/30 03:16:32;;;;;;;1.30;1.10;;;14.10;99.90;;;;;;5085102;28;20092;-55
2021/12/30 03:18:59;;;;;;;;;;;14.10;99.90;;;;;;5085481;28;20131;-58
2021/12/30 03:21:26;;;;;;;2.75;1.45;;;14.10;99.90;;;;;;5084038;28;19924;-54
2021/12/30 03:23:54;;;;;;;2.15;1.20;;;14.10;99.90;;;;;;5083354;28;20051;-57
2021/12/30 03:26:21;;;;;;;2.08;1.00;;;14.10;99.90;;;;;;5085348;28;20079;-51
2021/12/30 03:28:48;;;;;;;1.55;1.27;;;14.10;99.90;;;;;;5082512;28;20043;-56
2021/12/30 03:31:16;;;;;;;1.77;1.10;;;14.10;99.90;;;;;;5083235;28;20082;-56
2021/12/30 03:33:43;;;;;;;1.65;1.10;;;14.10;99.90;;;;;;5084637;28;20052;-57
2021/12/30 03:36:11;;;;;;;1.90;1.25;;;14.10;99.90;;;;;;5082956;28;20082;-57
2021/12/30 03:38:39;;;;;;;2.38;1.30;;;14.10;99.90;;;;;;5082965;28;20095;-51
2021/12/30 03:41:07;;;;;;;1.90;1.33;;;14.10;99.90;;;;;;5084171;28;20143;-56
2021/12/30 03:43:34;;;;;;;1.45;1.17;;;14.10;99.90;;;;;;5083336;28;20135;-57
2021/12/30 03:46:01;;;;;;;3.00;1.40;;;14.20;99.90;;;;;;5084483;28;20101;-57
2021/12/30 03:48:33;;;;;;;2.17;1.52;;;14.20;99.90;;;;;;5084264;28;20135;-58
2021/12/30 03:51:06;;;;;;;3.17;2.05;;;14.20;99.90;;;;;;5084178;28;20097;-57
2021/12/30 03:53:37;;;;;;;2.33;1.60;;;14.20;99.90;;;;;;5084304;28;20075;-57
2021/12/30 03:56:09;;;;;;;2.22;1.52;;;14.20;99.90;;;;;;5084304;28;20044;-56
2021/12/30 03:58:36;;;;;;;2.05;1.50;;;14.20;99.90;;;;;;5082894;28;20102;-57
2021/12/30 04:01:03;;;;;;;2.83;1.75;;;14.30;99.90;;;;;;5082811;28;20167;-57
2021/12/30 04:03:30;;;;;;;2.97;1.40;;;14.30;99.90;;;;;;5079686;28;20556;-55
2021/12/30 04:05:57;;;;;;;4.10;1.30;;;14.30;99.90;;;;;;5085052;28;20071;-55
2021/12/30 04:08:24;;;;;;;3.53;1.27;;;14.30;99.90;;;;;;5084318;28;20121;-57
2021/12/30 04:10:51;;;;;;;2.55;1.40;;;14.20;99.90;;;;;;5084459;28;20135;-57
2021/12/30 04:13:17;;;;;;;3.70;1.52;;;14.20;99.90;;;;;;5082552;28;20095;-57
2021/12/30 04:15:44;;;;;;;3.00;1.17;;;14.20;99.90;;;;;;5082965;28;20131;-55
2021/12/30 04:18:11;;;;;;;2.65;1.30;;;14.20;99.90;;;;;;5082947;28;20131;-57
2021/12/30 04:20:39;;;;;;;3.97;1.67;;;14.20;99.90;;;;;;5084161;28;20040;-57
2021/12/30 04:23:07;;;;;;;2.45;1.20;;;14.20;99.90;;;;;;5084087;28;20171;-56
2021/12/30 04:25:34;;;;;;;4.28;1.65;;;14.20;99.90;;;;;;5082506;28;20506;-59
2021/12/30 04:28:01;;;;;;;3.40;1.58;;;14.20;99.90;;;;;;5084241;28;20575;-57
2021/12/30 04:30:28;;;;;;;3.15;1.60;;;14.20;99.90;;;;;;5083055;28;20040;-57
2021/12/30 04:32:54;;;;;;;2.35;1.35;;;14.20;99.90;;;;;;5082378;28;20046;-56
2021/12/30 04:35:21;;;;;;;3.88;1.60;;;14.20;99.90;;;;;;5081690;28;20472;-57
2021/12/30 04:37:48;;;;;;;3.38;1.90;;;14.10;99.90;;;;;;5084015;28;20512;-56
2021/12/30 04:40:15;;;;;;;4.38;1.75;;;14.10;99.90;;;;;;5081216;28;20468;-56
2021/12/30 04:42:42;;;;;;;3.55;1.75;;;14.20;99.90;;;;;;5085285;28;20140;-57
2021/12/30 04:45:10;;;;;;;3.35;1.92;;;14.10;99.90;;;;;;5084166;28;20082;-57
2021/12/30 04:47:38;;;;;;;4.03;2.17;;;14.10;99.90;;;;;;5085349;28;20051;-56
2021/12/30 04:50:10;;;;;;;3.20;2.03;;;14.10;99.90;;;;;;5085753;28;20556;-56
2021/12/30 04:52:37;;;;;;;4.55;2.00;;;14.20;99.90;;;;;;5081388;28;20618;-57
2021/12/30 04:55:04;;;;;;;7.35;2.45;;;14.10;99.90;;;;;;5085156;28;20077;-57
2021/12/30 04:57:30;;;;;;;4.45;2.40;;;14.10;99.90;;;;;;5085021;28;20539;-56
2021/12/30 04:59:57;;;;;;;3.80;2.20;;;14.10;99.90;;;;;;5084458;28;20076;-58
2021/12/30 05:02:30;;;;;;;5.40;2.63;;;14.10;99.90;;;;;;5085066;28;20134;-56
2021/12/30 05:04:57;;;;;;;6.22;2.75;;;14.10;99.90;;;;;;5084866;28;20054;-57
2021/12/30 05:07:24;;;;;;;6.13;2.33;;;14.10;99.90;;;;;;5085675;28;20444;-57
2021/12/30 05:09:50;;;;;;;6.00;2.50;;;14.20;99.90;;;;;;5079840;28;20036;-56
2021/12/30 05:12:17;;;;;;;5.28;2.10;;;14.10;99.90;;;;;;5076837;28;20129;-56
2021/12/30 05:14:44;;;;;;;4.85;2.70;;;14.20;99.90;;;;;;5081373;28;20131;-53
2021/12/30 05:17:11;;;;;;;5.13;1.90;;;14.20;99.90;;;;;;5085364;28;20079;-57
2021/12/30 05:19:38;;;;;;;5.15;2.83;;;14.20;99.90;;;;;;5085372;28;20079;-54
2021/12/30 05:22:05;;;;;;;8.45;3.45;;;14.20;99.90;;;;;;5084520;28;20127;-54
2021/12/30 05:24:32;;;;;;;10.23;4.72;;;14.10;99.90;;;;;;5084809;28;20416;-55
2021/12/30 05:26:58;;;;;;;7.97;4.20;;;14.10;99.90;;;;;;5084607;28;20135;-54
2021/12/30 05:29:25;;;;;;;10.45;4.00;;;14.10;99.90;;;;;;5084534;28;20142;-59
2021/12/30 05:31:52;;;;;;;8.05;4.10;;;14.10;99.90;;;;;;5078956;28;20071;-54
2021/12/30 05:34:19;;;;;;;13.38;4.93;;;14.10;99.90;;;;;;5084566;28;20048;-58
2021/12/30 05:36:46;;;;;;;11.88;4.93;;;14.10;99.90;;;;;;5082809;28;20479;-56
2021/12/30 05:39:13;;;;;;;11.43;4.13;;;14.10;99.90;;;;;;5085180;28;20082;-58
2021/12/30 05:41:40;;;;;;;14.63;5.25;;;14.00;99.90;;;;;;5084101;28;20064;-56
2021/12/30 05:44:07;;;;;;;16.27;6.38;;;14.00;99.90;;;;;;5083945;28;20052;-56
2021/12/30 05:46:34;;;;;;;20.45;6.30;;;14.00;99.90;;;;;;5084214;28;20044;-59
2021/12/30 05:49:01;;;;;;;18.67;5.70;;;14.00;99.90;;;;;;5084782;28;20051;-57
2021/12/30 05:51:28;;;;;;;13.68;5.63;;;13.90;99.90;;;;;;5084516;28;20079;-56
2021/12/30 05:53:55;;;;;;;11.82;4.82;;;13.90;99.90;;;;;;5084624;28;20555;-56
2021/12/30 05:56:22;;;;;;;16.48;5.90;;;14.00;99.90;;;;;;5084422;28;20116;-55
2021/12/30 05:58:48;;;;;;;13.65;5.25;;;13.90;99.90;;;;;;5082603;28;20397;-57
2021/12/30 06:01:15;;;;;;;13.82;5.65;;;13.90;99.90;;;;;;5081947;28;20158;-58
2021/12/30 06:03:42;;;;;;;12.57;4.50;;;13.90;99.90;;;;;;5077045;28;20079;-57
2021/12/30 06:06:09;;;;;;;14.05;6.03;;;14.00;99.90;;;;;;5077290;28;20184;-57
2021/12/30 06:08:37;;;;;;;16.52;6.22;;;13.90;99.90;;;;;;5079890;28;20083;-57
2021/12/30 06:11:03;;;;;;;15.15;6.50;;;13.90;99.90;;;;;;5079286;28;20109;-57
2021/12/30 06:13:32;;;;;;;14.57;5.13;;;13.90;99.90;;;;;;5078440;28;20054;-57
2021/12/30 06:15:59;;;;;;;9.45;4.38;;;13.90;99.90;;;;;;5079394;28;20090;-57
2021/12/30 06:18:26;;;;;;;15.02;5.22;;;13.90;99.90;;;;;;5079699;28;20197;-58
2021/12/30 06:20:53;;;;;;;14.13;5.60;;;13.90;99.90;;;;;;5079730;28;20131;-56
2021/12/30 06:23:19;;;;;;;16.38;6.22;;;13.90;99.90;;;;;;5078758;28;20147;-56
2021/12/30 06:25:46;;;;;;;14.77;4.97;;;13.90;99.90;;;;;;5079238;28;20137;-57
2021/12/30 06:28:14;;;;;;;14.40;5.20;;;13.90;99.90;;;;;;5079154;28;20094;-57
2021/12/30 06:30:40;;;;;;;11.88;4.47;;;13.90;99.90;;;;;;5076126;28;20044;-55
2021/12/30 06:33:07;;;;;;;11.20;4.55;;;14.00;99.90;;;;;;5080206;28;20654;-56
2021/12/30 06:35:34;;;;;;;10.00;4.40;;;13.90;99.90;;;;;;5079529;28;20040;-58
2021/12/30 06:38:02;;;;;;;11.95;4.70;;;13.90;99.90;;;;;;5077624;28;20188;-56
2021/12/30 06:40:30;;;;;;;14.25;5.68;;;13.90;99.90;;;;;;5079152;28;20084;-58
2021/12/30 06:42:57;;;;;;;15.48;5.80;;;13.90;99.90;;;;;;5078262;28;20163;-57
2021/12/30 06:45:24;;;;;;;16.65;5.22;;;13.90;99.90;;;;;;5078507;28;20076;-58
2021/12/30 06:47:54;;;;;;;14.40;5.03;;;13.90;99.90;;;;;;5079304;28;20051;-55
2021/12/30 06:50:24;;;;;;;9.25;3.58;;;14.00;99.90;;;;;;5078716;28;20056;-58
2021/12/30 06:52:52;;;;;;;13.32;4.18;;;13.90;99.90;;;;;;5078905;28;20656;-56
2021/12/30 06:55:20;;;;;;;11.63;4.20;;;13.90;99.90;;;;;;5078968;28;20056;-58
2021/12/30 06:57:47;;;;;;;9.90;3.55;;;14.00;99.90;;;;;;5078546;28;20062;-56
2021/12/30 07:00:14;;;;;;;10.40;3.90;;;14.00;99.90;;;;;;5078420;28;20040;-56
2021/12/30 07:02:44;;;;;;;13.07;4.53;;;14.00;99.90;;;;;;5076418;28;20052;-58
2021/12/30 07:05:11;;;;;;;10.00;3.80;;;14.00;99.90;;;;;;5077257;28;20634;-57
2021/12/30 07:07:38;;;;;;;10.90;3.63;;;14.00;99.90;;;;;;5078689;28;20086;-57
2021/12/30 07:10:05;;;;;;;7.25;3.00;;;14.00;99.90;;;;;;5075774;28;20127;-57
2021/12/30 07:12:32;;;;;;;7.70;3.38;;;14.00;99.90;;;;;;5078036;28;20181;-58
2021/12/30 07:15:01;;;;;;;8.57;3.20;;;14.00;99.90;;;;;;5076543;28;20204;-57
2021/12/30 07:17:30;;;;;;;7.82;3.05;;;14.00;99.90;;;;;;5078059;28;20079;-57
2021/12/30 07:19:57;;;;;;;11.00;4.82;;;14.00;99.90;;;;;;5078077;28;20048;-57
2021/12/30 07:22:24;;;;;;;7.47;3.33;;;14.00;99.90;;;;;;5078773;28;20567;-57
2021/12/30 07:25:09;;;;;;;6.97;2.85;;;14.00;99.90;;;;;;5078729;28;20040;-57
2021/12/30 07:27:36;;;;;;;11.32;3.95;;;14.00;99.90;;;;;;5079780;28;20056;-56
2021/12/30 07:30:03;;;;;;;10.80;3.33;;;14.00;99.90;;;;;;5075036;28;20563;-58
2021/12/30 07:32:30;;;;;;;7.90;3.38;;;14.10;99.90;;;;;;5078015;28;20131;-57
2021/12/30 07:34:57;;;;;;;12.00;3.42;;;14.00;99.90;;;;;;5078576;28;20043;-58
2021/12/30 07:37:23;;;;;;;10.23;3.83;;;14.00;99.90;;;;;;5078003;28;20087;-58
2021/12/30 07:39:52;;;;;;;8.80;3.17;;;14.00;99.90;;;;;;5077943;28;20214;-57
2021/12/30 07:42:18;;;;;;;10.48;3.00;;;14.10;99.90;;;;;;5077231;28;20135;-57
2021/12/30 07:44:45;;;;;;;6.50;2.85;;;14.10;99.90;;;;;;5076073;28;20407;-57
2021/12/30 07:47:16;;;;;;;7.53;3.33;;;14.10;99.90;;;;;;5076668;28;20055;-58
2021/12/30 07:49:43;;;;;;;9.82;3.50;;;14.10;99.90;;;;;;5077907;28;20091;-57
2021/12/30 07:52:10;;;;;;;12.65;4.35;;;14.10;99.90;;;;;;5078630;28;20154;-57
2021/12/30 07:54:36;;;;;;;7.90;3.10;;;14.10;99.90;;;;;;5076820;28;20132;-56
2021/12/30 07:57:03;;;;;;;9.88;2.90;;;14.10;99.90;;;;;;5077678;28;20681;-57
2021/12/30 07:59:30;;;;;;;11.05;3.42;;;14.10;99.90;;;;;;5077285;28;20221;-56
2021/12/30 08:01:58;;;;;;;8.95;3.30;;;14.10;99.90;;;;;;5074931;28;20059;-56
2021/12/30 08:04:25;;;;;;;5.82;2.53;;;14.10;99.90;;;;;;5076993;28;20058;-57
2021/12/30 08:06:52;;;;;;;8.50;2.90;;;14.10;99.90;;;;;;5078109;28;20131;-55
2021/12/30 08:09:20;;;;;;;9.43;3.63;;;14.10;99.90;;;;;;5076646;28;20107;-57
2021/12/30 08:11:48;;;;;;;10.00;3.25;;;14.10;99.90;;;;;;5076154;28;20102;-56
2021/12/30 08:14:15;;;;;;;7.50;3.15;;;14.10;99.90;;;;;;5077327;28;20059;-57
2021/12/30 08:16:41;;;;;;;9.65;3.35;;;14.10;99.90;;;;;;5077163;28;20127;-56
2021/12/30 08:19:08;;;;;;;7.68;3.00;;;14.10;99.90;;;;;;5077504;28;20044;-54
2021/12/30 08:21:35;;;;;;;6.18;2.97;;;14.10;99.90;;;;;;5075720;28;20394;-56
2021/12/30 08:24:02;;;;;;;7.85;2.85;;;14.20;99.90;;;;;;5076670;28;20048;-57
2021/12/30 08:26:29;;;;;;;7.45;3.13;;;14.20;99.90;;;;;;5077851;28;20127;-57
2021/12/30 08:28:55;;;;;;;5.20;2.55;;;14.20;99.90;;;;;;5076780;28;20087;-58
2021/12/30 08:31:22;;;;;;;6.35;2.35;;;14.20;99.90;;;;;;5074883;28;20932;-57
2021/12/30 08:33:51;;;;;;;7.97;3.00;;;14.30;99.90;;;;;;5077557;28;20058;-57
2021/12/30 08:36:18;;;;;;;11.25;3.42;;;14.20;99.90;;;;;;5077892;28;20143;-56
2021/12/30 08:38:44;;;;;;;7.95;3.17;;;14.20;99.90;;;;;;5077200;28;20531;-58
2021/12/30 08:41:11;;;;;;;8.45;3.25;;;14.20;99.90;;;;;;5078225;28;20139;-56
2021/12/30 08:43:38;;;;;;;8.55;2.85;;;14.20;99.90;;;;;;5075843;28;20679;-57
2021/12/30 08:46:05;;;;;;;7.43;2.60;;;14.20;99.90;;;;;;5076658;28;20527;-58
2021/12/30 08:48:37;;;;;;;7.70;3.08;;;14.20;99.90;;;;;;5076843;28;20553;-58
2021/12/30 08:51:04;;;;;;;6.82;2.78;;;14.20;99.90;;;;;;5076094;28;20144;-57
2021/12/30 08:53:31;;;;;;;5.63;2.30;;;14.20;99.90;;;;;;5078332;28;20139;-57
2021/12/30 08:55:57;;;;;;;8.07;3.17;;;14.10;99.90;;;;;;5078738;28;20436;-57
2021/12/30 08:58:24;;;;;;;8.20;2.78;;;14.10;99.90;;;;;;5076876;28;20094;-54
2021/12/30 09:00:51;;;;;;;5.65;2.85;;;14.10;99.90;;;;;;5075378;28;20079;-55
2021/12/30 09:03:18;;;;;;;8.40;3.05;;;14.10;99.90;;;;;;5077731;28;20395;-56
2021/12/30 09:05:45;;;;;;;5.70;2.45;;;14.10;99.90;;;;;;5078735;28;20048;-58
2021/12/30 09:08:12;;;;;;;7.53;2.67;;;14.10;99.90;;;;;;5079512;28;20047;-57
2021/12/30 09:10:40;;;;;;;7.15;3.70;;;14.10;99.90;;;;;;5079391;28;20562;-57
2021/12/30 09:13:08;;;;;;;6.95;3.13;;;14.10;99.90;;;;;;5077474;28;20091;-59
2021/12/30 09:15:36;;;;;;;6.50;2.55;;;14.10;99.90;;;;;;5077526;28;20224;-55
2021/12/30 09:18:05;;;;;;;7.32;2.40;;;14.10;99.90;;;;;;5077430;28;20593;-56
2021/12/30 09:20:32;;;;;;;8.13;3.17;;;14.20;99.90;;;;;;5076551;28;20166;-57
2021/12/30 09:22:59;;;;;;;10.50;3.75;;;14.20;99.90;;;;;;5078663;28;20831;-56
2021/12/30 09:25:26;;;;;;;5.57;2.63;;;14.20;99.90;;;;;;5079279;28;20471;-57
2021/12/30 09:27:54;;;;;;;8.02;3.15;;;14.20;99.90;;;;;;5076910;28;20638;-55
2021/12/30 09:30:20;;;;;;;9.05;3.10;;;14.30;99.90;;;;;;5075179;28;20131;-55
2021/12/30 09:32:47;;;;;;;9.10;3.28;;;14.30;99.90;;;;;;5077682;28;20188;-56
2021/12/30 09:35:14;;;;;;;6.05;2.58;;;14.30;99.90;;;;;;5079170;28;20478;-57
2021/12/30 09:37:42;;;;;;;7.57;3.20;;;14.30;99.90;;;;;;5078966;28;20143;-57
2021/12/30 09:40:13;;;;;;;6.10;2.30;;;14.30;99.90;;;;;;5077938;28;20075;-57
2021/12/30 09:42:46;;;;;;;6.13;2.38;;;14.30;99.90;;;;;;5077164;28;20099;-58
2021/12/30 09:45:14;;;;;;;6.13;2.60;;;14.40;99.90;;;;;;5072484;28;20054;-58
2021/12/30 09:47:48;;;;;;;4.85;2.42;;;14.40;99.90;;;;;;5071899;28;20080;-58
2021/12/30 09:50:15;;;;;;;7.60;2.95;;;14.40;99.90;;;;;;5080137;28;20487;-58
2021/12/30 09:52:42;;;;;;;7.47;3.25;;;14.50;99.90;;;;;;5081173;28;20133;-58
2021/12/30 09:55:09;;;;;;;6.90;2.90;;;14.50;99.90;;;;;;5080152;28;20119;-58
2021/12/30 09:57:37;;;;;;;6.28;3.15;;;14.50;99.90;;;;;;5081393;28;20155;-55
2021/12/30 10:00:06;;;;;;;4.35;2.53;;;14.50;99.90;;;;;;5080453;28;20145;-58
2021/12/30 10:02:32;;;;;;;7.53;3.25;;;14.60;99.90;;;;;;5082711;28;20336;-58
2021/12/30 10:05:08;;;;;;;6.32;3.30;;;14.60;99.90;;;;;;5084274;28;20044;-57
2021/12/30 10:07:35;;;;;;;8.13;3.42;;;14.50;99.90;;;;;;5083708;28;20128;-57
2021/12/30 10:10:03;;;;;;;5.78;2.85;;;14.50;99.90;;;;;;5084684;28;20076;-58
2021/12/30 10:12:41;;;;;;;9.10;2.90;;;14.50;99.90;;;;;;5081116;28;20079;-56
2021/12/30 10:15:08;;;;;;;5.70;2.90;;;14.50;99.90;;;;;;5082844;28;20219;-57
2021/12/30 10:17:35;;;;;;;7.65;2.88;;;14.50;99.90;;;;;;5084850;28;20163;-56
2021/12/30 10:20:24;;;;;;;5.20;2.78;;;14.50;99.90;;;;;;5084860;28;20531;-58
2021/12/30 10:22:56;;;;;;;5.45;2.45;;;14.40;99.90;;;;;;5082403;28;20075;-56
2021/12/30 10:25:34;;;;;;;7.70;3.03;;;14.50;99.90;;;;;;5079254;28;20148;-57
2021/12/30 10:28:32;;;;;;;6.45;2.90;;;14.40;99.90;;;;;;5081087;28;20585;-57
2021/12/30 10:31:11;;;;;;;4.65;2.33;;;14.40;99.90;;;;;;5082313;28;20109;-58
2021/12/30 10:33:55;;;;;;;4.95;2.33;;;14.50;99.90;;;;;;5082179;28;20479;-57
2021/12/30 10:36:41;;;;;;;6.10;2.22;;;14.50;99.90;;;;;;5082644;28;20036;-57
2021/12/30 10:39:27;;;;;;;6.57;2.28;;;14.50;99.90;;;;;;5080892;28;20079;-52
2021/12/30 10:42:09;;;;;;;7.57;2.65;;;14.50;99.90;;;;;;5083975;28;20131;-55
2021/12/30 10:44:53;;;;;;;4.55;2.40;;;14.50;99.90;;;;;;5081277;28;20083;-55
2021/12/30 10:47:21;;;;;;;6.07;2.03;;;14.40;99.90;;;;;;5080252;28;20052;-58
2021/12/30 10:50:01;;;;;;;5.72;1.98;;;14.50;99.90;;;;;;5084785;28;20072;-58
2021/12/30 10:52:28;;;;;;;7.15;2.55;;;14.60;99.90;;;;;;5081818;28;20147;-55
2021/12/30 10:54:55;;;;;;;5.78;2.10;;;14.60;99.90;;;;;;5082034;28;20402;-51
2021/12/30 10:57:27;;;;;;;3.90;1.75;;;14.60;99.90;;;;;;5084501;28;20147;-54
2021/12/30 10:59:54;;;;;;;3.63;1.80;;;14.70;99.90;;;;;;5084192;28;20121;-53
2021/12/30 11:02:23;;;;;;;4.05;2.20;;;14.70;99.90;;;;;;5083796;28;20135;-54
2021/12/30 11:04:56;;;;;;;5.22;2.13;;;14.70;99.90;;;;;;5084882;28;20096;-54
2021/12/30 11:07:51;;;;;;;5.40;2.47;;;14.80;99.90;;;;;;5084933;28;20883;-54
2021/12/30 11:10:38;;;;;;;8.02;2.88;;;14.80;99.90;;;;;;5084071;28;20106;-54
2021/12/30 11:13:10;;;;;;;6.22;2.50;;;14.80;99.90;;;;;;5083390;28;20475;-56
2021/12/30 11:15:37;;;;;;;4.75;2.17;;;14.90;99.90;;;;;;5082058;28;20044;-51
2021/12/30 11:18:11;;;;;;;5.68;2.00;;;15.00;99.90;;;;;;5081811;28;20096;-55
2021/12/30 11:20:43;;;;;;;6.78;2.33;;;15.30;99.90;;;;;;5082953;28;20075;-50
2021/12/30 11:23:10;;;;;;;5.13;1.98;;;15.30;99.90;;;;;;5082425;28;20090;-57
2021/12/30 11:25:37;;;;;;;4.43;1.67;;;15.40;99.90;;;;;;5082345;28;20098;-55
2021/12/30 11:28:03;;;;;;;4.28;2.00;;;15.40;99.90;;;;;;5080316;28;20099;-53
2021/12/30 11:30:30;;;;;;;2.90;1.85;;;15.50;99.90;;;;;;5083271;28;20075;-53
2021/12/30 11:32:57;;;;;;;5.82;1.98;;;15.60;99.90;;;;;;5081242;28;20079;-53
2021/12/30 11:35:25;;;;;;;6.63;2.35;;;15.60;99.90;;;;;;5082959;28;20048;-52
2021/12/30 11:37:53;;;;;;;4.40;1.85;;;15.40;99.90;;;;;;5085930;28;20106;-51
2021/12/30 11:40:21;;;;;;;7.03;2.20;;;15.40;99.90;;;;;;5085544;28;20079;-52
2021/12/30 11:42:53;;;;;;;5.90;2.20;;;15.30;99.90;;;;;;5084018;28;20048;-53
2021/12/30 11:45:29;;;;;;;5.82;2.40;;;15.20;99.90;;;;;;5080701;28;20095;-54
2021/12/30 11:47:58;;;;;;;4.32;2.08;;;15.10;99.90;;;;;;5083288;28;20087;-50
2021/12/30 11:50:35;;;;;;;5.10;1.90;;;15.10;99.90;;;;;;5079956;28;20080;-52
2021/12/30 11:53:11;;;;;;;5.68;1.73;;;15.10;99.90;;;;;;5081262;28;20043;-52
2021/12/30 11:55:57;;;;;;;5.65;2.10;;;15.00;99.90;;;;;;5082290;28;20048;-51
2021/12/30 11:58:37;;;;;;;5.55;2.20;;;15.00;99.90;;;;;;5079123;28;20047;-55
2021/12/30 12:01:04;;;;;;;5.25;1.95;;;14.90;99.90;;;;;;5081739;28;20065;-55
2021/12/30 12:03:37;;;;;;;4.10;1.88;;;14.90;99.90;;;;;;5081020;28;20507;-52
2021/12/30 12:06:24;;;;;;;6.20;2.50;;;14.90;99.90;;;;;;5080072;28;20052;-53
2021/12/30 12:09:09;;;;;;;6.00;2.50;;;14.80;99.90;;;;;;5081857;28;20125;-54
2021/12/30 12:11:50;;;;;;;6.35;2.85;;;14.80;99.90;;;;;;5081076;28;20143;-53
2021/12/30 12:14:23;;;;;;;6.93;1.90;;;14.80;99.90;;;;;;5078025;28;20094;-55
2021/12/30 12:16:52;;;;;;;5.95;2.55;;;14.80;99.90;;;;;;5078891;28;20063;-52
2021/12/30 12:19:20;;;;;;;5.60;2.30;;;14.80;99.90;;;;;;5075353;28;20048;-54
2021/12/30 12:21:50;;;;;;;5.82;2.25;;;14.80;99.90;;;;;;5081145;28;20072;-55
2021/12/30 12:24:25;;;;;;;8.55;2.85;;;14.80;99.90;;;;;;5079723;28;20128;-56
2021/12/30 12:26:53;;;;;;;6.78;2.60;;;14.80;99.90;;;;;;5059970;28;20468;-55
2021/12/30 12:29:31;;;;;;;5.85;2.30;;;14.90;99.90;;;;;;5075575;28;20468;-54
2021/12/30 12:32:03;;;;;;;6.20;2.08;;;14.90;99.90;;;;;;5079838;28;20499;-53
2021/12/30 12:34:45;;;;;;;5.00;2.35;;;15.00;99.90;;;;;;5075093;28;20139;-54
2021/12/30 12:37:36;;;;;;;5.88;2.08;;;15.10;99.90;;;;;;5073477;28;20040;-55
2021/12/30 12:40:05;;;;;;;5.93;2.35;;;15.20;99.90;;;;;;5072822;28;20051;-53
2021/12/30 12:42:50;;;;;;;6.60;2.63;;;15.30;99.90;;;;;;5076267;28;20109;-55
2021/12/30 12:45:59;;;;;;;4.75;2.33;;;15.30;99.90;;;;;;5076505;28;20768;-53
2021/12/30 12:48:27;;;;;;;6.63;2.60;;;15.30;99.90;;;;;;5067854;28;20112;-54
2021/12/30 12:51:07;;;;;;;6.75;2.85;;;15.30;99.90;;;;;;5077305;28;20134;-54
2021/12/30 12:53:36;;;;;;;9.35;2.92;;;15.20;99.90;;;;;;5076436;28;20662;-54
2021/12/30 12:56:10;;;;;;;8.80;2.80;;;15.20;99.90;;;;;;5074913;28;20052;-54